Time;durP1;ratioP1;P1;durP2;ratioP2;P2;SDS_P1;SDS_P2;PMS_P1;PMS_P2;Temp;Humidity;BMP_temperature;BMP_pressure;BME280_temperature;BME280_humidity;BME280_pressure;Samples;Min_cycle;Max_cycle;Signal;HPM_P1;HPM_P2
2022/04/04 00:01:06;;;;;;;4.50;2.70;;;;;;;;;;5077552;28;20045;-65
2022/04/04 00:03:35;;;;;;;4.85;3.08;;;;;;;;;;5065218;28;20125;-65
2022/04/04 00:06:06;;;;;;;5.93;3.03;;;;;;;;;;5074682;28;20452;-65
2022/04/04 00:08:35;;;;;;;6.07;2.97;;;;;;;;;;5061264;28;20094;-65
2022/04/04 00:11:06;;;;;;;6.78;3.28;;;;;;;;;;5077892;28;20075;-65
2022/04/04 00:13:36;;;;;;;4.90;3.10;;;;;;;;;;5076208;28;20168;-65
2022/04/04 00:16:08;;;;;;;7.97;3.13;;;;;;;;;;5076679;28;20060;-65
2022/04/04 00:18:37;;;;;;;6.35;3.53;;;;;;;;;;5086121;28;20044;-65
2022/04/04 00:21:05;;;;;;;5.50;3.28;;;;;;;;;;5065985;28;20098;-65
2022/04/04 00:23:33;;;;;;;6.10;3.03;;;;;;;;;;5078845;28;20139;-65
2022/04/04 00:26:04;;;;;;;5.85;3.42;;;;;;;;;;5068702;28;20044;-65
2022/04/04 00:28:32;;;;;;;9.07;3.60;;;;;;;;;;5071420;28;20131;-65
2022/04/04 00:31:04;;;;;;;7.90;4.07;;;;;;;;;;5072692;28;20071;-65
2022/04/04 00:33:32;;;;;;;7.00;3.53;;;;;;;;;;5076313;28;20044;-65
2022/04/04 00:36:02;;;;;;;7.18;3.67;;;;;;;;;;5059168;28;20171;-65
2022/04/04 00:38:32;;;;;;;6.55;3.22;;;;;;;;;;5070057;28;20062;-65
2022/04/04 00:41:00;;;;;;;6.57;3.80;;;;;;;;;;5070335;28;20474;-65
2022/04/04 00:43:28;;;;;;;7.38;3.67;;;;;;;;;;5065855;28;20072;-65
2022/04/04 00:45:56;;;;;;;6.90;3.35;;;;;;;;;;5063935;28;20075;-65
2022/04/04 00:48:26;;;;;;;12.27;4.00;;;;;;;;;;5060646;28;20447;-65
2022/04/04 00:50:55;;;;;;;7.65;3.47;;;;;;;;;;5053493;28;20136;-65
2022/04/04 00:53:23;;;;;;;5.75;3.05;;;;;;;;;;5067855;28;20471;-65
2022/04/04 00:55:51;;;;;;;6.63;3.38;;;;;;;;;;5064947;28;20762;-65
2022/04/04 00:58:20;;;;;;;6.28;3.53;;;;;;;;;;5073737;28;20174;-65
2022/04/04 01:00:49;;;;;;;7.72;3.88;;;;;;;;;;5049962;28;20077;-65
2022/04/04 01:03:18;;;;;;;7.78;3.83;;;;;;;;;;5057160;28;20056;-65
2022/04/04 01:05:48;;;;;;;6.63;3.55;;;;;;;;;;5057632;28;20166;-65
2022/04/04 01:08:17;;;;;;;8.18;3.40;;;;;;;;;;5067194;28;20152;-65
2022/04/04 01:10:45;;;;;;;6.38;3.55;;;;;;;;;;5073269;28;20119;-65
2022/04/04 01:13:14;;;;;;;11.55;3.25;;;;;;;;;;5057679;28;20076;-65
2022/04/04 01:15:42;;;;;;;5.70;3.70;;;;;;;;;;5059561;28;20037;-64
2022/04/04 01:18:11;;;;;;;7.20;3.85;;;;;;;;;;5058336;28;20045;-65
2022/04/04 01:20:39;;;;;;;6.35;3.40;;;;;;;;;;5059522;28;20140;-65
2022/04/04 01:23:09;;;;;;;8.43;3.83;;;;;;;;;;5057372;28;20556;-65
2022/04/04 01:25:39;;;;;;;8.10;4.32;;;;;;;;;;5064261;28;21246;-65
2022/04/04 01:28:07;;;;;;;7.65;3.40;;;;;;;;;;5051977;28;20139;-65
2022/04/04 01:30:36;;;;;;;8.27;4.20;;;;;;;;;;5060694;28;20055;-65
2022/04/04 01:33:04;;;;;;;9.10;3.85;;;;;;;;;;5072629;28;20045;-65
2022/04/04 01:35:32;;;;;;;5.53;3.50;;;;;;;;;;5056085;28;20053;-65
2022/04/04 01:38:01;;;;;;;8.90;3.92;;;;;;;;;;5064933;28;20234;-65
2022/04/04 01:40:29;;;;;;;7.53;3.45;;;;;;;;;;5084711;28;20056;-65
2022/04/04 01:42:59;;;;;;;6.15;3.55;;;;;;;;;;5089455;28;20075;-65
2022/04/04 01:48:12;;;;;;;7.57;3.42;;;;;;;;;;5044831;28;20558;-65
2022/04/04 01:50:40;;;;;;;7.43;3.70;;;;;;;;;;5091149;28;20097;-65
2022/04/04 01:53:27;;;;;;;6.32;3.70;;;;;;;;;;5087908;28;20052;-65
2022/04/04 01:55:56;;;;;;;6.47;3.05;;;;;;;;;;5086607;28;20040;-65
2022/04/04 01:58:26;;;;;;;5.53;3.03;;;;;;;;;;5086697;27;20066;-65
2022/04/04 02:00:56;;;;;;;9.07;3.55;;;;;;;;;;5080691;28;20075;-65
2022/04/04 02:03:25;;;;;;;6.53;3.58;;;;;;;;;;5088521;28;20043;-65
2022/04/04 02:05:54;;;;;;;6.60;3.90;;;;;;;;;;5087874;28;20050;-65
2022/04/04 02:08:23;;;;;;;6.47;3.47;;;;;;;;;;5089506;28;20082;-65
2022/04/04 02:10:51;;;;;;;7.57;3.67;;;;;;;;;;5089834;28;20487;-65
2022/04/04 02:13:19;;;;;;;8.10;3.80;;;;;;;;;;5087157;28;20135;-65
2022/04/04 02:15:49;;;;;;;5.20;3.42;;;;;;;;;;5088165;28;20044;-65
2022/04/04 02:18:18;;;;;;;8.57;3.55;;;;;;;;;;5085340;28;20054;-65
2022/04/04 02:20:46;;;;;;;10.02;4.35;;;;;;;;;;5085211;28;20103;-65
2022/04/04 02:23:17;;;;;;;9.90;4.22;;;;;;;;;;5089624;28;20067;-65
2022/04/04 02:25:46;;;;;;;10.65;5.00;;;;;;;;;;5088321;28;20062;-65
2022/04/04 02:28:14;;;;;;;9.13;4.05;;;;;;;;;;5086918;28;20084;-65
2022/04/04 02:30:42;;;;;;;6.68;3.72;;;;;;;;;;5085116;28;20127;-65
2022/04/04 02:33:13;;;;;;;9.73;4.45;;;;;;;;;;5090564;28;20047;-65
2022/04/04 02:35:41;;;;;;;5.97;3.53;;;;;;;;;;5093390;28;20079;-65
2022/04/04 02:38:10;;;;;;;6.15;3.63;;;;;;;;;;5088218;28;20128;-65
2022/04/04 02:40:38;;;;;;;8.07;3.70;;;;;;;;;;5081573;28;20152;-65
2022/04/04 02:43:07;;;;;;;9.52;4.30;;;;;;;;;;5074369;28;20049;-65
2022/04/04 02:45:35;;;;;;;6.35;3.63;;;;;;;;;;5072901;28;20090;-65
2022/04/04 02:48:04;;;;;;;6.60;3.40;;;;;;;;;;5076534;28;20403;-65
2022/04/04 02:50:35;;;;;;;6.75;3.42;;;;;;;;;;5080569;28;20043;-65
2022/04/04 02:53:04;;;;;;;6.13;3.75;;;;;;;;;;5068925;28;20135;-65
2022/04/04 02:58:18;;;;;;;9.15;3.95;;;;;;;;;;5062611;28;20057;-65
2022/04/04 03:00:46;;;;;;;7.85;4.00;;;;;;;;;;5065495;28;20132;-65
2022/04/04 03:03:15;;;;;;;9.68;4.50;;;;;;;;;;5058694;28;20048;-65
2022/04/04 03:05:46;;;;;;;10.00;4.60;;;;;;;;;;5069419;28;20072;-65
2022/04/04 03:08:15;;;;;;;8.57;4.38;;;;;;;;;;5069588;28;20047;-65
2022/04/04 03:10:43;;;;;;;6.63;3.60;;;;;;;;;;5075442;28;20507;-65
2022/04/04 03:13:11;;;;;;;7.97;4.18;;;;;;;;;;5075433;28;20505;-65
2022/04/04 03:15:40;;;;;;;7.47;3.95;;;;;;;;;;5067790;28;20083;-65
2022/04/04 03:18:08;;;;;;;11.93;4.35;;;;;;;;;;5067019;28;20136;-65
2022/04/04 03:20:36;;;;;;;7.68;4.30;;;;;;;;;;5069719;28;20122;-65
2022/04/04 03:23:06;;;;;;;10.93;4.25;;;;;;;;;;5073991;28;20056;-65
2022/04/04 03:25:35;;;;;;;9.30;4.45;;;;;;;;;;5069110;28;20164;-65
2022/04/04 03:28:03;;;;;;;6.85;3.50;;;;;;;;;;5079257;28;20046;-65
2022/04/04 03:30:31;;;;;;;8.15;4.40;;;;;;;;;;5068207;28;20135;-65
2022/04/04 03:33:00;;;;;;;9.25;3.13;;;;;;;;;;5068103;28;20040;-65
2022/04/04 03:35:30;;;;;;;11.93;3.83;;;;;;;;;;5074387;28;20059;-65
2022/04/04 03:37:59;;;;;;;10.50;4.13;;;;;;;;;;5071816;28;20475;-65
2022/04/04 03:40:29;;;;;;;9.55;3.78;;;;;;;;;;5075315;28;20087;-65
2022/04/04 03:42:58;;;;;;;9.85;4.30;;;;;;;;;;5081622;28;20155;-65
2022/04/04 03:45:27;;;;;;;9.55;4.45;;;;;;;;;;5085253;28;20044;-65
2022/04/04 03:47:55;;;;;;;14.82;3.60;;;;;;;;;;5087336;28;20044;-65
2022/04/04 03:50:24;;;;;;;7.35;3.85;;;;;;;;;;5084973;28;20399;-65
2022/04/04 03:52:53;;;;;;;7.50;3.60;;;;;;;;;;5086806;28;20075;-65
2022/04/04 03:55:22;;;;;;;7.55;3.85;;;;;;;;;;5083771;28;20043;-65
2022/04/04 03:57:52;;;;;;;8.43;3.85;;;;;;;;;;5087807;28;20131;-65
2022/04/04 04:00:22;;;;;;;11.30;3.78;;;;;;;;;;5084151;28;20131;-65
2022/04/04 04:02:50;;;;;;;7.13;3.47;;;;;;;;;;5087280;28;20501;-65
2022/04/04 04:05:18;;;;;;;9.13;3.92;;;;;;;;;;5084726;28;20134;-65
2022/04/04 04:07:47;;;;;;;7.43;3.55;;;;;;;;;;5090231;28;20550;-65
2022/04/04 04:10:16;;;;;;;10.85;4.43;;;;;;;;;;5084024;28;20052;-65
2022/04/04 04:12:45;;;;;;;9.38;3.92;;;;;;;;;;5083152;28;20105;-65
2022/04/04 04:15:16;;;;;;;8.73;4.03;;;;;;;;;;5085480;28;20044;-65
2022/04/04 04:17:44;;;;;;;8.73;4.07;;;;;;;;;;5085468;28;20130;-65
2022/04/04 04:20:25;;;;;;;7.50;3.80;;;;;;;;;;5087820;28;20083;-65
2022/04/04 04:22:55;;;;;;;10.70;3.35;;;;;;;;;;5087307;28;20122;-65
2022/04/04 04:25:24;;;;;;;8.73;4.25;;;;;;;;;;5085682;28;20123;-65
2022/04/04 04:27:53;;;;;;;12.20;4.50;;;;;;;;;;5090952;28;20147;-65
2022/04/04 04:30:22;;;;;;;13.98;4.78;;;;;;;;;;5083837;28;20052;-65
2022/04/04 04:32:52;;;;;;;7.03;4.68;;;;;;;;;;5087944;28;20048;-65
2022/04/04 04:35:21;;;;;;;7.00;3.75;;;;;;;;;;5083241;28;20433;-64
2022/04/04 04:37:51;;;;;;;10.60;4.30;;;;;;;;;;5084803;28;20123;-66
2022/04/04 04:40:20;;;;;;;10.50;4.07;;;;;;;;;;5083616;28;20491;-65
2022/04/04 04:42:49;;;;;;;8.95;4.32;;;;;;;;;;5087314;28;20138;-66
2022/04/04 04:45:17;;;;;;;10.48;4.45;;;;;;;;;;5080264;28;20044;-65
2022/04/04 04:47:47;;;;;;;7.70;4.32;;;;;;;;;;5084534;28;20118;-65
2022/04/04 04:50:16;;;;;;;7.85;3.88;;;;;;;;;;5084540;28;20600;-65
2022/04/04 04:52:46;;;;;;;10.80;4.40;;;;;;;;;;5082867;28;20101;-65
2022/04/04 04:55:14;;;;;;;6.22;4.22;;;;;;;;;;5085065;28;20069;-65
2022/04/04 04:57:42;;;;;;;9.80;4.60;;;;;;;;;;5089977;28;20127;-65
2022/04/04 05:00:12;;;;;;;8.50;4.60;;;;;;;;;;5085671;28;20131;-65
2022/04/04 05:02:40;;;;;;;7.47;4.18;;;;;;;;;;5076459;28;20572;-65
2022/04/04 05:05:10;;;;;;;11.80;4.13;;;;;;;;;;5086377;28;20066;-65
2022/04/04 05:07:38;;;;;;;9.40;5.13;;;;;;;;;;5086744;28;20171;-64
2022/04/04 05:10:07;;;;;;;9.88;4.35;;;;;;;;;;5080443;28;20372;-65
2022/04/04 05:12:35;;;;;;;8.13;4.35;;;;;;;;;;5085253;28;20050;-65
2022/04/04 05:15:04;;;;;;;9.85;4.68;;;;;;;;;;5082417;28;20048;-65
2022/04/04 05:17:32;;;;;;;9.85;4.47;;;;;;;;;;5087452;28;20126;-65
2022/04/04 05:20:00;;;;;;;14.90;4.38;;;;;;;;;;5070834;28;20132;-65
2022/04/04 05:22:30;;;;;;;9.30;4.72;;;;;;;;;;5089530;28;20123;-65
2022/04/04 05:24:58;;;;;;;10.10;4.65;;;;;;;;;;5087829;28;20048;-65
2022/04/04 05:27:27;;;;;;;11.10;4.97;;;;;;;;;;5092281;28;20087;-65
2022/04/04 05:29:55;;;;;;;7.60;4.38;;;;;;;;;;5092209;28;20071;-64
2022/04/04 05:32:23;;;;;;;9.45;4.38;;;;;;;;;;5089849;28;20487;-64
2022/04/04 05:34:51;;;;;;;10.23;5.03;;;;;;;;;;5086298;28;20047;-65
2022/04/04 05:37:20;;;;;;;10.63;4.05;;;;;;;;;;5088316;28;20048;-65
2022/04/04 05:39:49;;;;;;;8.55;5.13;;;;;;;;;;5082330;28;20094;-65
2022/04/04 05:42:17;;;;;;;8.65;4.32;;;;;;;;;;5095490;28;20091;-65
2022/04/04 05:44:46;;;;;;;11.25;4.80;;;;;;;;;;5090956;28;20081;-65
2022/04/04 05:47:19;;;;;;;11.45;5.05;;;;;;;;;;5081561;28;20461;-65
2022/04/04 05:49:49;;;;;;;16.08;4.47;;;;;;;;;;5087745;28;20042;-65
2022/04/04 05:52:18;;;;;;;12.70;4.93;;;;;;;;;;5091890;28;20048;-64
2022/04/04 05:54:57;;;;;;;13.40;4.95;;;;;;;;;;5089931;28;20430;-64
2022/04/04 05:57:28;;;;;;;14.05;4.75;;;;;;;;;;5083409;28;20134;-65
2022/04/04 05:59:57;;;;;;;8.60;4.50;;;;;;;;;;5086107;28;20048;-65
2022/04/04 06:02:26;;;;;;;9.23;4.45;;;;;;;;;;5088905;28;20044;-65
2022/04/04 06:04:55;;;;;;;8.02;3.88;;;;;;;;;;5086953;28;20051;-65
2022/04/04 06:07:24;;;;;;;8.43;4.60;;;;;;;;;;5090341;28;20599;-64
2022/04/04 06:09:52;;;;;;;9.90;4.30;;;;;;;;;;5089649;28;20044;-66
2022/04/04 06:12:27;;;;;;;7.05;4.55;;;;;;;;;;5090633;28;20044;-65
2022/04/04 06:14:56;;;;;;;8.90;4.30;;;;;;;;;;5083489;28;20072;-65
2022/04/04 06:17:24;;;;;;;8.45;4.47;;;;;;;;;;5092167;28;20105;-65
2022/04/04 06:19:54;;;;;;;8.90;3.90;;;;;;;;;;5088453;28;20071;-65
2022/04/04 06:22:23;;;;;;;8.25;3.80;;;;;;;;;;5088690;28;20082;-64
2022/04/04 06:24:51;;;;;;;8.02;3.78;;;;;;;;;;5090738;28;20051;-65
2022/04/04 06:27:20;;;;;;;10.25;4.78;;;;;;;;;;5092835;28;20090;-65
2022/04/04 06:29:50;;;;;;;9.65;4.40;;;;;;;;;;5085580;28;20044;-65
2022/04/04 06:32:18;;;;;;;11.00;4.78;;;;;;;;;;5086181;28;20052;-65
2022/04/04 06:34:47;;;;;;;10.57;4.65;;;;;;;;;;5083206;28;20123;-65
2022/04/04 06:37:16;;;;;;;10.70;4.18;;;;;;;;;;5089767;28;20131;-65
2022/04/04 06:39:44;;;;;;;11.90;4.57;;;;;;;;;;5088898;28;20169;-65
2022/04/04 06:42:14;;;;;;;12.98;5.20;;;;;;;;;;5064896;28;20091;-65
2022/04/04 06:44:43;;;;;;;8.50;4.20;;;;;;;;;;5075578;28;20041;-65
2022/04/04 06:47:13;;;;;;;9.38;3.90;;;;;;;;;;5067677;28;20491;-65
2022/04/04 06:49:41;;;;;;;6.05;3.28;;;;;;;;;;5058917;28;20088;-65
2022/04/04 06:52:10;;;;;;;7.57;3.72;;;;;;;;;;5069742;28;20507;-65
2022/04/04 06:54:44;;;;;;;10.02;3.72;;;;;;;;;;5076062;28;20040;-65
2022/04/04 06:57:13;;;;;;;6.55;3.50;;;;;;;;;;5050326;28;20045;-65
2022/04/04 06:59:42;;;;;;;9.68;3.78;;;;;;;;;;5068286;28;20056;-65
2022/04/04 07:02:10;;;;;;;7.05;3.47;;;;;;;;;;5065307;28;20094;-65
2022/04/04 07:04:40;;;;;;;8.35;3.30;;;;;;;;;;5066715;28;20128;-65
2022/04/04 07:07:09;;;;;;;4.30;2.63;;;;;;;;;;5067948;28;21434;-65
2022/04/04 07:09:38;;;;;;;5.82;3.42;;;;;;;;;;5065725;28;20057;-65
2022/04/04 07:12:09;;;;;;;4.32;2.65;;;;;;;;;;5064245;28;20044;-65
2022/04/04 07:14:37;;;;;;;7.00;3.05;;;;;;;;;;5070036;28;20048;-65
2022/04/04 07:17:06;;;;;;;7.10;2.85;;;;;;;;;;5063676;28;20037;-65
2022/04/04 07:19:35;;;;;;;7.10;2.90;;;;;;;;;;5066677;28;20388;-65
2022/04/04 07:22:05;;;;;;;6.50;2.80;;;;;;;;;;5074717;28;20055;-65
2022/04/04 07:24:34;;;;;;;9.32;3.25;;;;;;;;;;5065687;28;20064;-65
2022/04/04 07:27:03;;;;;;;7.57;3.00;;;;;;;;;;5066928;28;20049;-65
2022/04/04 07:29:32;;;;;;;7.53;2.72;;;;;;;;;;5066983;28;20071;-65
2022/04/04 07:32:01;;;;;;;5.75;2.67;;;;;;;;;;5064776;28;20044;-65
2022/04/04 07:34:29;;;;;;;6.50;2.60;;;;;;;;;;5063636;28;20045;-65
2022/04/04 07:36:58;;;;;;;7.68;2.92;;;;;;;;;;5059599;28;20049;-65
2022/04/04 07:39:28;;;;;;;6.38;2.88;;;;;;;;;;5067993;28;20063;-65
2022/04/04 07:41:57;;;;;;;8.68;3.22;;;;;;;;;;5086438;28;20055;-65
2022/04/04 07:44:26;;;;;;;6.55;3.20;;;;;;;;;;5079790;28;20117;-65
2022/04/04 07:46:55;;;;;;;3.70;2.58;;;;;;;;;;5087299;28;20086;-65
2022/04/04 07:49:23;;;;;;;3.65;2.40;;;;;;;;;;5088157;28;20137;-65
2022/04/04 07:51:53;;;;;;;7.53;2.97;;;;;;;;;;5089203;28;20055;-65
2022/04/04 07:54:25;;;;;;;7.22;2.67;;;;;;;;;;5081924;28;20101;-65
2022/04/04 07:56:56;;;;;;;5.28;2.70;;;;;;;;;;5079384;28;20391;-65
2022/04/04 07:59:24;;;;;;;5.97;2.88;;;;;;;;;;5089204;28;20055;-65
2022/04/04 08:01:53;;;;;;;4.20;2.80;;;;;;;;;;5088472;28;20795;-65
2022/04/04 08:04:22;;;;;;;5.40;2.42;;;;;;;;;;5082410;28;20090;-65
2022/04/04 08:06:51;;;;;;;3.75;2.13;;;;;;;;;;5084313;28;20058;-65
2022/04/04 08:09:20;;;;;;;4.53;2.65;;;;;;;;;;5085660;28;20048;-66
2022/04/04 08:11:50;;;;;;;4.70;2.45;;;;;;;;;;5076970;28;20097;-65
2022/04/04 08:14:21;;;;;;;5.72;2.45;;;;;;;;;;5081917;28;20044;-65
2022/04/04 08:16:50;;;;;;;6.22;2.08;;;;;;;;;;5085828;28;20044;-65
2022/04/04 08:19:19;;;;;;;4.65;2.00;;;;;;;;;;5087854;28;20047;-65
2022/04/04 08:21:49;;;;;;;9.07;2.90;;;;;;;;;;5089161;28;20048;-65
2022/04/04 08:24:20;;;;;;;3.78;2.88;;;;;;;;;;5089433;28;20191;-65
2022/04/04 08:26:48;;;;;;;5.35;2.50;;;;;;;;;;5085793;28;20086;-65
2022/04/04 08:29:17;;;;;;;4.20;2.30;;;;;;;;;;5088310;28;20472;-65
2022/04/04 08:31:47;;;;;;;6.18;2.63;;;;;;;;;;5086293;28;20083;-65
2022/04/04 08:34:15;;;;;;;3.15;1.90;;;;;;;;;;5084917;28;20113;-65
2022/04/04 08:36:44;;;;;;;5.50;2.45;;;;;;;;;;5086580;28;20078;-65
2022/04/04 08:39:13;;;;;;;3.85;2.08;;;;;;;;;;5087461;28;20493;-65
2022/04/04 08:41:42;;;;;;;6.25;2.70;;;;;;;;;;5081142;28;20051;-66
2022/04/04 08:44:11;;;;;;;6.20;2.70;;;;;;;;;;5087521;28;20151;-66
2022/04/04 08:46:40;;;;;;;4.40;2.30;;;;;;;;;;5082595;28;21420;-66
2022/04/04 08:49:11;;;;;;;4.38;2.60;;;;;;;;;;5083734;28;20048;-66
2022/04/04 08:51:40;;;;;;;5.63;2.80;;;;;;;;;;5086158;28;20067;-66
2022/04/04 08:54:09;;;;;;;6.60;3.10;;;;;;;;;;5086567;28;20076;-66
2022/04/04 08:56:38;;;;;;;5.22;2.92;;;;;;;;;;5090661;28;20573;-66
2022/04/04 08:59:06;;;;;;;6.40;3.25;;;;;;;;;;5086428;28;20072;-66
2022/04/04 09:01:35;;;;;;;4.72;2.60;;;;;;;;;;5090508;28;20082;-66
2022/04/04 09:04:16;;;;;;;4.22;2.63;;;;;;;;;;5078637;28;20051;-66
2022/04/04 09:06:50;;;;;;;6.28;3.20;;;;;;;;;;5091661;28;20101;-65
2022/04/04 09:09:19;;;;;;;3.92;2.92;;;;;;;;;;5084753;28;20407;-66
2022/04/04 09:11:55;;;;;;;3.80;2.45;;;;;;;;;;5090581;28;20064;-66
2022/04/04 09:14:25;;;;;;;5.47;2.65;;;;;;;;;;5090033;28;20048;-66
2022/04/04 09:16:55;;;;;;;4.95;2.90;;;;;;;;;;5094508;28;20048;-66
2022/04/04 09:19:34;;;;;;;6.80;2.50;;;;;;;;;;5089928;28;20163;-66
2022/04/04 09:22:07;;;;;;;5.03;3.10;;;;;;;;;;5080952;28;20484;-66
2022/04/04 09:24:52;;;;;;;4.68;3.00;;;;;;;;;;5087156;28;20056;-66
2022/04/04 09:27:24;;;;;;;6.18;2.97;;;;;;;;;;5090618;28;20066;-66
2022/04/04 09:29:54;;;;;;;7.15;3.15;;;;;;;;;;5083136;28;20048;-66
2022/04/04 09:32:23;;;;;;;5.82;3.03;;;;;;;;;;5091343;28;20040;-66
2022/04/04 09:35:08;;;;;;;7.75;3.05;;;;;;;;;;5086606;28;20063;-66
2022/04/04 09:37:39;;;;;;;5.63;2.97;;;;;;;;;;5088493;28;20049;-66
2022/04/04 09:40:10;;;;;;;5.28;2.97;;;;;;;;;;5088746;28;20059;-66
2022/04/04 09:42:42;;;;;;;4.22;2.85;;;;;;;;;;5070097;28;20446;-66
2022/04/04 09:45:12;;;;;;;5.78;3.45;;;;;;;;;;5083204;28;20135;-66
2022/04/04 09:47:52;;;;;;;6.25;3.30;;;;;;;;;;5068394;28;20048;-66
2022/04/04 09:50:35;;;;;;;6.95;3.55;;;;;;;;;;5071295;28;20040;-66
2022/04/04 09:53:12;;;;;;;4.90;3.35;;;;;;;;;;5070789;28;20060;-66
2022/04/04 09:55:42;;;;;;;5.97;3.33;;;;;;;;;;5066459;28;20519;-66
2022/04/04 09:58:15;;;;;;;4.93;3.15;;;;;;;;;;5071647;28;20044;-66
2022/04/04 10:00:45;;;;;;;4.53;3.20;;;;;;;;;;5083842;28;20509;-66
2022/04/04 10:03:14;;;;;;;4.80;3.08;;;;;;;;;;5075412;28;20052;-66
2022/04/04 10:05:44;;;;;;;6.93;3.47;;;;;;;;;;5076626;28;20051;-66
2022/04/04 10:08:16;;;;;;;7.93;3.60;;;;;;;;;;5069249;28;20123;-66
2022/04/04 10:10:45;;;;;;;6.20;3.17;;;;;;;;;;5080344;28;20131;-66
2022/04/04 10:13:15;;;;;;;5.43;3.25;;;;;;;;;;5069152;28;20098;-66
2022/04/04 10:15:44;;;;;;;6.10;3.17;;;;;;;;;;5067884;28;20040;-66
2022/04/04 10:18:13;;;;;;;4.93;3.35;;;;;;;;;;5068858;28;20040;-66
2022/04/04 10:20:42;;;;;;;7.50;3.67;;;;;;;;;;5073496;28;20046;-66
2022/04/04 10:23:13;;;;;;;8.10;3.50;;;;;;;;;;5072183;28;20044;-66
2022/04/04 10:25:43;;;;;;;7.00;4.50;;;;;;;;;;5069306;28;20056;-66
2022/04/04 10:28:12;;;;;;;7.25;3.58;;;;;;;;;;5070678;28;20513;-66
2022/04/04 10:30:41;;;;;;;6.70;3.30;;;;;;;;;;5057752;28;20067;-66
2022/04/04 10:33:18;;;;;;;7.28;3.40;;;;;;;;;;5074573;28;20053;-66
2022/04/04 10:35:59;;;;;;;7.22;3.67;;;;;;;;;;5076020;28;20050;-66
2022/04/04 10:38:30;;;;;;;5.47;3.30;;;;;;;;;;5076104;28;20048;-66
2022/04/04 10:41:07;;;;;;;7.97;3.50;;;;;;;;;;5072402;28;20766;-66
2022/04/04 10:43:36;;;;;;;5.82;3.08;;;;;;;;;;5060607;28;20053;-66
2022/04/04 10:46:10;;;;;;;4.57;3.03;;;;;;;;;;5060119;28;20041;-66
2022/04/04 10:48:40;;;;;;;8.00;4.13;;;;;;;;;;5057729;28;20044;-66
2022/04/04 10:51:17;;;;;;;;;;;;;;;;;;5065492;28;20049;-66
2022/04/04 10:53:48;;;;;;;6.38;3.33;;;;;;;;;;5052506;28;19928;-66
2022/04/04 10:56:23;;;;;;;6.78;4.28;;;;;;;;;;5047520;28;20045;-66
2022/04/04 10:58:52;;;;;;;7.50;4.40;;;;;;;;;;5062119;28;20036;-66
2022/04/04 11:01:22;;;;;;;8.48;4.30;;;;;;;;;;5061805;28;20052;-66
2022/04/04 11:03:58;;;;;;;10.77;4.57;;;;;;;;;;5063602;28;20143;-66
2022/04/04 11:09:50;;;;;;;9.55;4.10;;;;;;;;;;5051025;28;20056;-66
2022/04/04 11:12:24;;;;;;;10.85;4.75;;;;;;;;;;5065315;28;20044;-66
2022/04/04 11:14:57;;;;;;;7.07;4.57;;;;;;;;;;5062472;28;20099;-66
2022/04/04 11:17:36;;;;;;;7.25;4.15;;;;;;;;;;5063687;28;20053;-66
2022/04/04 11:20:10;;;;;;;8.82;4.53;;;;;;;;;;5061617;28;20259;-66
2022/04/04 11:22:45;;;;;;;9.60;4.15;;;;;;;;;;5052468;28;20149;-66
2022/04/04 11:25:17;;;;;;;9.75;4.63;;;;;;;;;;5056397;28;20056;-66
2022/04/04 11:27:49;;;;;;;6.55;4.20;;;;;;;;;;5053064;28;20131;-66
2022/04/04 11:30:20;;;;;;;8.10;4.55;;;;;;;;;;5057156;28;20052;-66
2022/04/04 11:32:54;;;;;;;7.13;4.30;;;;;;;;;;5056214;28;20060;-66
2022/04/04 11:35:27;;;;;;;8.32;4.60;;;;;;;;;;5057874;28;20052;-66
2022/04/04 11:37:57;;;;;;;8.80;4.13;;;;;;;;;;5062753;28;20041;-67
2022/04/04 11:40:33;;;;;;;8.15;4.55;;;;;;;;;;5074252;28;20479;-66
2022/04/04 11:43:06;;;;;;;9.38;4.82;;;;;;;;;;5080351;28;20048;-66
2022/04/04 11:45:39;;;;;;;8.52;4.15;;;;;;;;;;5081742;28;20673;-66
2022/04/04 11:48:10;;;;;;;9.15;5.03;;;;;;;;;;5076111;28;20043;-66
2022/04/04 11:50:40;;;;;;;9.13;4.85;;;;;;;;;;5085729;28;20055;-66
2022/04/04 11:53:09;;;;;;;7.38;4.38;;;;;;;;;;5082841;28;20517;-66
2022/04/04 11:55:39;;;;;;;7.93;4.20;;;;;;;;;;5081301;28;20049;-66
2022/04/04 11:58:12;;;;;;;8.57;5.05;;;;;;;;;;5088734;28;20047;-66
2022/04/04 12:00:43;;;;;;;8.30;4.05;;;;;;;;;;5092529;28;20075;-66
2022/04/04 12:03:12;;;;;;;9.70;4.57;;;;;;;;;;5087851;28;20098;-66
2022/04/04 12:05:42;;;;;;;8.13;4.60;;;;;;;;;;5086797;28;20495;-66
2022/04/04 12:08:11;;;;;;;7.15;4.20;;;;;;;;;;5087821;28;20044;-66
2022/04/04 12:10:40;;;;;;;8.82;5.13;;;;;;;;;;5085166;28;20044;-66
2022/04/04 12:13:11;;;;;;;8.68;4.50;;;;;;;;;;5080298;28;21993;-66
2022/04/04 12:15:42;;;;;;;7.82;4.80;;;;;;;;;;5083763;28;20497;-66
2022/04/04 12:18:11;;;;;;;8.15;4.80;;;;;;;;;;5078449;28;20094;-66
2022/04/04 12:20:41;;;;;;;7.00;4.10;;;;;;;;;;5083790;28;20109;-66
2022/04/04 12:25:57;;;;;;;7.80;4.22;;;;;;;;;;5087459;28;20044;-66
2022/04/04 12:28:28;;;;;;;9.48;5.10;;;;;;;;;;5078501;28;20045;-66
2022/04/04 12:30:57;;;;;;;8.18;4.47;;;;;;;;;;5086698;28;20047;-66
2022/04/04 12:33:33;;;;;;;9.88;5.03;;;;;;;;;;5090512;28;20040;-66
2022/04/04 12:36:04;;;;;;;9.07;5.20;;;;;;;;;;5087347;28;20048;-66
2022/04/04 12:38:37;;;;;;;9.52;4.97;;;;;;;;;;5093956;28;20051;-66
2022/04/04 12:41:10;;;;;;;9.65;5.45;;;;;;;;;;5085854;28;20040;-66
2022/04/04 12:43:41;;;;;;;9.80;5.05;;;;;;;;;;5081839;28;20056;-66
2022/04/04 12:46:23;;;;;;;9.43;5.50;;;;;;;;;;5090801;28;20059;-66
2022/04/04 12:49:09;;;;;;;8.55;5.30;;;;;;;;;;5093215;28;20097;-66
2022/04/04 12:51:38;;;;;;;10.77;5.32;;;;;;;;;;5093293;28;20047;-66
2022/04/04 12:54:06;;;;;;;7.65;4.97;;;;;;;;;;5092387;28;20048;-66
2022/04/04 12:56:49;;;;;;;9.15;5.35;;;;;;;;;;5088461;28;20036;-66
2022/04/04 12:59:20;;;;;;;10.05;5.70;;;;;;;;;;5089175;28;20142;-66
2022/04/04 13:02:04;;;;;;;11.20;5.85;;;;;;;;;;5084207;28;20048;-66
2022/04/04 13:04:34;;;;;;;11.45;5.95;;;;;;;;;;5087462;28;20442;-66
2022/04/04 13:07:16;;;;;;;9.65;5.45;;;;;;;;;;5092107;28;20270;-66
2022/04/04 13:09:50;;;;;;;8.98;5.10;;;;;;;;;;5088157;28;20082;-66
2022/04/04 13:12:26;;;;;;;12.57;5.90;;;;;;;;;;5089367;28;20083;-66
2022/04/04 13:14:56;;;;;;;10.70;5.97;;;;;;;;;;5086984;28;20840;-66
2022/04/04 13:17:35;;;;;;;10.23;5.30;;;;;;;;;;5080477;28;20057;-66
2022/04/04 13:20:04;;;;;;;8.93;5.80;;;;;;;;;;5085863;28;20054;-66
2022/04/04 13:22:33;;;;;;;11.30;5.88;;;;;;;;;;5083756;28;20045;-66
2022/04/04 13:25:02;;;;;;;9.98;5.43;;;;;;;;;;5085446;28;20056;-66
2022/04/04 13:27:31;;;;;;;9.68;5.47;;;;;;;;;;5081466;28;20143;-66
2022/04/04 13:30:01;;;;;;;9.07;5.10;;;;;;;;;;5089515;28;20163;-66
2022/04/04 13:32:30;;;;;;;9.07;5.55;;;;;;;;;;5084672;28;20495;-66
2022/04/04 13:34:59;;;;;;;10.40;5.95;;;;;;;;;;5081057;28;20539;-66
2022/04/04 13:37:28;;;;;;;10.65;5.70;;;;;;;;;;5080500;28;20078;-66
2022/04/04 13:39:57;;;;;;;13.05;6.43;;;;;;;;;;5085591;28;20052;-66
2022/04/04 13:42:26;;;;;;;11.23;6.55;;;;;;;;;;5071703;28;20127;-66
2022/04/04 13:44:55;;;;;;;10.32;5.82;;;;;;;;;;5076272;28;20045;-66
2022/04/04 13:47:25;;;;;;;11.55;6.72;;;;;;;;;;5048991;28;20144;-66
2022/04/04 13:49:53;;;;;;;13.35;6.88;;;;;;;;;;5063077;28;20393;-66
2022/04/04 13:52:22;;;;;;;11.18;6.50;;;;;;;;;;5056078;28;20129;-66
2022/04/04 13:54:51;;;;;;;13.40;6.18;;;;;;;;;;5062893;28;20048;-66
2022/04/04 13:57:20;;;;;;;10.93;6.22;;;;;;;;;;5064657;28;20143;-65
2022/04/04 13:59:48;;;;;;;10.02;5.53;;;;;;;;;;5063469;28;20420;-66
2022/04/04 14:02:18;;;;;;;10.30;5.65;;;;;;;;;;5051058;28;20063;-66
2022/04/04 14:04:49;;;;;;;11.23;6.32;;;;;;;;;;5064486;28;20051;-65
2022/04/04 14:07:19;;;;;;;9.88;6.32;;;;;;;;;;5054527;28;20048;-66
2022/04/04 14:09:47;;;;;;;14.15;6.25;;;;;;;;;;5060592;28;20080;-66
2022/04/04 14:12:20;;;;;;;10.73;5.10;;;;;;;;;;5046392;28;20048;-66
2022/04/04 14:14:49;;;;;;;11.10;5.53;;;;;;;;;;5070314;28;20098;-66
2022/04/04 14:17:20;;;;;;;10.15;5.90;;;;;;;;;;5053710;28;20101;-66
2022/04/04 14:19:50;;;;;;;11.50;6.40;;;;;;;;;;5064131;28;20049;-66
2022/04/04 14:22:19;;;;;;;10.80;6.10;;;;;;;;;;5066142;28;20056;-67
2022/04/04 14:24:50;;;;;;;12.25;6.22;;;;;;;;;;5074316;28;20475;-67
2022/04/04 14:27:19;;;;;;;12.35;6.03;;;;;;;;;;5060194;28;20483;-67
2022/04/04 14:29:49;;;;;;;14.30;6.05;;;;;;;;;;5071249;28;20483;-66
2022/04/04 14:32:18;;;;;;;10.57;5.95;;;;;;;;;;5057070;28;20044;-67
2022/04/04 14:34:47;;;;;;;10.77;5.78;;;;;;;;;;5058062;28;20064;-66
2022/04/04 14:37:18;;;;;;;11.70;6.55;;;;;;;;;;5059554;28;20102;-66
2022/04/04 14:39:47;;;;;;;10.27;5.80;;;;;;;;;;5069767;28;20538;-66
2022/04/04 14:42:16;;;;;;;10.73;5.95;;;;;;;;;;5065606;28;20083;-66
2022/04/04 14:44:48;;;;;;;10.05;5.05;;;;;;;;;;5064952;28;20127;-67
2022/04/04 14:47:18;;;;;;;8.68;5.30;;;;;;;;;;5071653;28;20062;-67
2022/04/04 14:49:56;;;;;;;12.63;5.95;;;;;;;;;;5056734;28;20064;-67
2022/04/04 14:52:27;;;;;;;12.45;6.05;;;;;;;;;;5072143;28;20055;-67
2022/04/04 14:54:56;;;;;;;9.55;5.00;;;;;;;;;;5065806;28;20040;-67
2022/04/04 14:57:25;;;;;;;12.02;5.35;;;;;;;;;;5064619;28;20124;-67
2022/04/04 14:59:54;;;;;;;12.23;5.70;;;;;;;;;;5057744;28;20057;-67
2022/04/04 15:02:23;;;;;;;9.50;5.55;;;;;;;;;;5064178;28;20135;-67
2022/04/04 15:05:11;;;;;;;13.63;5.95;;;;;;;;;;5071347;28;20495;-67
2022/04/04 15:07:42;;;;;;;9.60;5.30;;;;;;;;;;5067856;28;20044;-67
2022/04/04 15:10:11;;;;;;;7.97;4.97;;;;;;;;;;5068358;28;20094;-67